Averill, Minnesota
Current Conditions -  °F | °C
As of 7:51 AM on Saturday 20 Dec 2014 (Local Time) from KJKJ Reporting Station
Overcast Overcast  
Wind Chill: 24°   Ceiling: 800
Heat Index: 30°   Visibility: 7mi
Dew Point: 30°   Wind: 6mph
Humidity: 100%   Direction: 190°S
Pressure: 30.04"   Gusts: NA
Location:  46.8905°N, 96.5417°W
Report Text: KJKJ 201351Z AUTO 19005KT 7SM OVC008 M01/M01 A3004 RMK AO2
Loading
Personal Weather Stations






























Interactive Weather Map New forecast layout! Learn more

10-Day Weather Forecast

Advertisements
Track Severe Weather on mobile